首页
METAR-TAF:

METAR-TAF

机场 :

布列斯特機場

布列斯特, 白俄罗斯

纬度: 52-06-30N, 经度: 023-53-48E, 海拔: 143米

当前天气观测

该预报发布于1小时和2分钟前的09:00 UTC
风速6节,风向西
温度 16°C
湿度 51%
气压 1025 hPa
能見度: 7000

METAR: UMBB 190900Z 28003MPS 7000 NSC 16/06 Q1025 NOSIG

时间: 13:02 (10:02 UTC)

预报

该预报发布于1小时和59分钟前的08:03 UTC
预报有效从19日的 09点(UTC)到 19日的 18点(UTC)
风速10节,风向西
能见度10公里或以上
散云层高于2000英尺

TAF: UMBB 190803Z 1909/1918 27005MPS 9999 SCT020

超过4000个机场的气象观测和天气预报(METAR&TAF报告)。

可查询的气象台以黄色和红色小点在地图上表示。

将鼠标移到小点上方,可查看气象台名称。

然后点击查看天气观测和预报。

如需切换地图:点击带黑十字的绿色按钮放大地图;点击带横线的绿色按钮缩小地图;或者点击绿色箭头查看邻近地区的地图。


METAR-TAF: